Aviation Digital Data Service (ADDS)

Output produced by TAFs form (2112 UTC 23 July 2016)
found at http://aviationweather.gov/adds/tafs/
 
KAMA 231726Z 2318/2418 19016G26KT P6SM SCT100 
     FM240200 17011KT P6SM FEW100 SCT300 
     FM241300 21012KT P6SM SKC